createdAt,value
2023-04-27T00:01:50.343Z,14.52
2023-04-27T00:04:24.122Z,13.82
2023-04-27T00:06:54.108Z,14.73
2023-04-27T00:09:24.645Z,14.13
2023-04-27T00:11:54.658Z,18.85
2023-04-27T00:14:24.321Z,12.80
2023-04-27T00:16:54.140Z,13.07
2023-04-27T00:19:24.262Z,12.50
2023-04-27T00:21:54.130Z,16.73
2023-04-27T00:24:23.730Z,16.20
2023-04-27T00:26:53.793Z,16.88
2023-04-27T00:29:23.430Z,16.45
2023-04-27T00:31:53.564Z,19.90
2023-04-27T00:34:25.085Z,17.98
2023-04-27T00:36:55.114Z,16.00
2023-04-27T00:39:24.735Z,14.18
2023-04-27T00:41:54.578Z,17.10
2023-04-27T00:44:28.290Z,21.80
2023-04-27T00:47:00.286Z,13.57
2023-04-27T00:49:30.569Z,13.73
2023-04-27T00:52:00.378Z,12.48
2023-04-27T00:54:30.860Z,13.80
2023-04-27T00:57:01.100Z,12.68
2023-04-27T00:59:31.568Z,13.73
2023-04-27T01:02:02.429Z,14.38
2023-04-27T01:04:33.726Z,14.45
2023-04-27T01:07:04.300Z,14.63
2023-04-27T01:09:35.069Z,14.52
2023-04-27T01:12:05.302Z,13.80
2023-04-27T01:14:35.087Z,13.77
2023-04-27T01:17:05.022Z,13.93
2023-04-27T01:19:34.719Z,12.95
2023-04-27T01:22:04.734Z,13.90
2023-04-27T01:24:34.538Z,13.85
2023-04-27T01:27:07.844Z,13.57
2023-04-27T01:29:39.800Z,12.13
2023-04-27T01:32:12.049Z,12.95
2023-04-27T01:34:42.021Z,15.63
2023-04-27T01:37:11.831Z,13.27
2023-04-27T01:39:42.007Z,13.20
2023-04-27T01:42:12.297Z,13.48
2023-04-27T01:44:42.651Z,14.18
2023-04-27T01:47:12.354Z,14.13
2023-04-27T01:49:43.025Z,14.13
2023-04-27T01:52:12.669Z,14.88
2023-04-27T01:54:42.556Z,14.77
2023-04-27T01:57:13.540Z,15.45
2023-04-27T01:59:43.872Z,15.93
2023-04-27T02:02:13.922Z,16.50
2023-04-27T02:04:44.768Z,16.02
2023-04-27T02:07:14.617Z,18.05
2023-04-27T02:09:44.981Z,16.02
2023-04-27T02:12:16.945Z,16.20
2023-04-27T02:14:46.961Z,16.70
2023-04-27T02:17:16.742Z,14.38
2023-04-27T02:19:48.341Z,16.00
2023-04-27T02:22:18.940Z,15.43
2023-04-27T02:24:49.044Z,15.07
2023-04-27T02:27:19.225Z,14.82
2023-04-27T02:29:49.416Z,15.13
2023-04-27T02:32:19.935Z,15.02
2023-04-27T02:34:50.069Z,14.40
2023-04-27T02:37:21.314Z,15.07
2023-04-27T02:39:52.145Z,14.93
2023-04-27T02:42:22.519Z,14.15
2023-04-27T02:44:52.618Z,14.70
2023-04-27T02:47:22.353Z,14.13
2023-04-27T02:49:52.227Z,16.20
2023-04-27T02:52:22.396Z,21.23
2023-04-27T02:54:52.474Z,14.43
2023-04-27T02:57:22.299Z,15.40
2023-04-27T02:59:52.392Z,14.60
2023-04-27T03:02:22.136Z,15.30
2023-04-27T03:04:56.746Z,15.48
2023-04-27T03:07:26.785Z,17.05
2023-04-27T03:09:57.166Z,17.08
2023-04-27T03:12:27.000Z,15.68
2023-04-27T03:14:56.886Z,16.20
2023-04-27T03:17:27.463Z,14.85
2023-04-27T03:19:57.442Z,16.05
2023-04-27T03:22:28.402Z,17.23
2023-04-27T03:24:58.610Z,16.23
2023-04-27T03:27:28.329Z,15.25
2023-04-27T03:29:58.162Z,14.68
2023-04-27T03:32:28.278Z,15.43
2023-04-27T03:34:58.991Z,16.40
2023-04-27T03:37:29.289Z,15.85
2023-04-27T03:39:59.944Z,14.73
2023-04-27T03:42:30.925Z,14.18
2023-04-27T03:45:01.078Z,14.65
2023-04-27T03:47:30.802Z,14.40
2023-04-27T03:50:01.099Z,14.23
2023-04-27T03:52:30.807Z,14.68
2023-04-27T03:55:01.070Z,14.85
2023-04-27T03:57:30.787Z,14.50
2023-04-27T04:00:01.100Z,14.27
2023-04-27T04:02:30.925Z,26.08
2023-04-27T04:05:01.400Z,35.92
2023-04-27T04:07:31.279Z,24.27
2023-04-27T04:10:01.855Z,15.95
2023-04-27T04:12:32.662Z,14.60
2023-04-27T04:15:03.220Z,15.35
2023-04-27T04:17:35.424Z,15.15
2023-04-27T04:20:10.329Z,15.10
2023-04-27T04:22:40.765Z,16.00
2023-04-27T04:25:10.724Z,14.63
2023-04-27T04:27:40.828Z,14.13
2023-04-27T04:30:11.130Z,14.85
2023-04-27T04:32:41.786Z,14.35
2023-04-27T04:35:12.822Z,14.98
2023-04-27T04:37:42.961Z,16.15
2023-04-27T04:40:14.240Z,15.68
2023-04-27T04:42:44.719Z,14.43
2023-04-27T04:45:14.318Z,14.65
2023-04-27T04:47:44.214Z,14.18
2023-04-27T04:50:14.576Z,14.15
2023-04-27T04:52:44.679Z,13.55
2023-04-27T04:55:14.798Z,13.00
2023-04-27T04:57:44.761Z,13.35
2023-04-27T05:00:15.237Z,12.88
2023-04-27T05:02:45.283Z,13.88
2023-04-27T05:05:15.161Z,15.35
2023-04-27T05:07:45.024Z,12.43
2023-04-27T05:10:15.450Z,13.35
2023-04-27T05:12:46.150Z,13.48
2023-04-27T05:15:15.938Z,14.30
2023-04-27T05:17:45.980Z,13.55
2023-04-27T05:20:16.128Z,12.80
2023-04-27T05:22:46.060Z,13.35
2023-04-27T05:25:15.686Z,14.18
2023-04-27T05:27:45.507Z,13.52
2023-04-27T05:30:15.761Z,15.27
2023-04-27T05:32:45.886Z,13.75
2023-04-27T05:35:15.601Z,14.10
2023-04-27T05:37:45.401Z,14.32
2023-04-27T05:40:16.826Z,13.32
2023-04-27T05:42:51.148Z,13.82
2023-04-27T05:45:21.221Z,14.50
2023-04-27T05:47:50.985Z,14.23
2023-04-27T05:50:21.106Z,13.98
2023-04-27T05:52:50.775Z,14.30
2023-04-27T05:55:20.857Z,14.35
2023-04-27T05:58:00.579Z,15.25
2023-04-27T06:00:38.091Z,15.52
2023-04-27T06:03:08.252Z,16.25
2023-04-27T06:05:38.317Z,15.60
2023-04-27T06:08:08.626Z,17.95
2023-04-27T06:10:39.193Z,16.73
2023-04-27T06:13:09.328Z,16.52
2023-04-27T06:15:38.987Z,15.65
2023-04-27T06:18:08.917Z,15.70
2023-04-27T06:20:38.665Z,16.52
2023-04-27T06:23:08.716Z,16.73
2023-04-27T06:25:40.473Z,19.13
2023-04-27T06:28:10.552Z,18.77
2023-04-27T06:30:40.237Z,17.90
2023-04-27T06:33:11.006Z,15.88
2023-04-27T06:35:40.644Z,17.13
2023-04-27T06:38:10.676Z,18.60
2023-04-27T06:40:40.307Z,16.90
2023-04-27T06:43:10.235Z,16.88
2023-04-27T06:45:39.879Z,17.75
2023-04-27T06:48:09.943Z,16.52
2023-04-27T06:50:39.676Z,17.60
2023-04-27T06:53:10.190Z,17.05
2023-04-27T06:55:41.672Z,16.70
2023-04-27T06:58:14.445Z,18.13
2023-04-27T07:00:44.206Z,19.23
2023-04-27T07:03:14.547Z,18.33
2023-04-27T07:05:44.855Z,19.75
2023-04-27T07:08:14.854Z,18.60
2023-04-27T07:10:45.590Z,19.05
2023-04-27T07:13:15.880Z,19.80
2023-04-27T07:15:45.663Z,19.42
2023-04-27T07:18:15.625Z,18.95
2023-04-27T07:20:45.516Z,26.67
2023-04-27T07:23:15.456Z,18.95
2023-04-27T07:25:46.924Z,18.40
2023-04-27T07:28:16.907Z,18.67
2023-04-27T07:30:47.160Z,18.85
2023-04-27T07:33:17.556Z,19.35
2023-04-27T07:35:47.567Z,19.40
2023-04-27T07:38:18.919Z,20.35
2023-04-27T07:40:49.081Z,19.85
2023-04-27T07:43:19.832Z,20.27
2023-04-27T07:45:51.059Z,20.08
2023-04-27T07:48:21.091Z,20.40
2023-04-27T07:50:51.293Z,20.23
2023-04-27T07:53:21.232Z,20.95
2023-04-27T07:55:51.058Z,19.35
2023-04-27T07:58:21.417Z,19.00
2023-04-27T08:00:51.333Z,18.67
2023-04-27T08:03:21.244Z,18.10
2023-04-27T08:05:51.846Z,19.13
2023-04-27T08:08:21.921Z,19.33
2023-04-27T08:10:52.631Z,19.58
2023-04-27T08:13:23.719Z,17.85
2023-04-27T08:16:00.234Z,18.85
2023-04-27T08:18:30.614Z,19.17
2023-04-27T08:21:00.568Z,19.02
2023-04-27T08:23:32.748Z,19.38
2023-04-27T08:26:02.843Z,20.23
2023-04-27T08:28:33.281Z,21.05
2023-04-27T08:31:03.352Z,20.83
2023-04-27T08:33:33.438Z,20.88
2023-04-27T08:36:03.519Z,21.08
2023-04-27T08:38:35.165Z,21.67
2023-04-27T08:41:20.359Z,22.27
2023-04-27T08:43:53.333Z,21.75
2023-04-27T08:46:25.642Z,21.00
2023-04-27T08:48:56.508Z,20.70
2023-04-27T08:51:29.022Z,22.63
2023-04-27T08:54:00.098Z,19.77
2023-04-27T08:56:32.124Z,21.92
2023-04-27T08:59:05.870Z,21.50
2023-04-27T09:01:36.457Z,21.73
2023-04-27T09:04:09.499Z,22.60
2023-04-27T09:06:39.711Z,21.42
2023-04-27T09:09:10.219Z,21.85
2023-04-27T09:11:42.252Z,23.38
2023-04-27T09:14:23.324Z,23.88
2023-04-27T09:17:02.355Z,22.42
2023-04-27T09:19:33.036Z,21.83
2023-04-27T09:22:11.336Z,21.80
2023-04-27T09:24:51.762Z,21.13
2023-04-27T09:27:23.310Z,21.55
2023-04-27T09:29:54.044Z,21.88
2023-04-27T09:32:23.805Z,21.75
2023-04-27T09:34:53.856Z,20.20
2023-04-27T09:37:24.875Z,20.80
2023-04-27T09:39:55.096Z,23.90
2023-04-27T09:42:25.156Z,19.63
2023-04-27T09:44:56.105Z,22.83
2023-04-27T09:47:27.000Z,22.85
2023-04-27T09:49:57.480Z,25.50
2023-04-27T09:52:27.828Z,25.23
2023-04-27T09:55:00.975Z,22.45
2023-04-27T09:57:56.925Z,22.38
2023-04-27T10:00:56.729Z,21.08
2023-04-27T10:04:06.569Z,22.45
2023-04-27T10:07:03.501Z,22.45
2023-04-27T10:09:53.763Z,21.65
2023-04-27T10:12:44.464Z,21.25
2023-04-27T10:15:18.194Z,21.20
2023-04-27T10:18:00.483Z,21.70
2023-04-27T10:20:35.445Z,22.75
2023-04-27T10:23:06.897Z,23.08
2023-04-27T10:25:42.135Z,21.02
2023-04-27T10:28:19.068Z,21.60
2023-04-27T10:30:50.571Z,20.95
2023-04-27T10:33:24.217Z,21.15
2023-04-27T10:36:01.925Z,22.17
2023-04-27T10:38:32.936Z,54.15
2023-04-27T10:41:06.438Z,23.33
2023-04-27T10:43:39.452Z,22.63
2023-04-27T10:46:13.280Z,22.67
2023-04-27T10:48:46.874Z,25.48
2023-04-27T10:51:23.007Z,24.13
2023-04-27T10:53:55.450Z,22.83
2023-04-27T10:56:26.366Z,25.85
2023-04-27T10:58:56.152Z,41.17
2023-04-27T11:01:28.247Z,38.67
2023-04-27T11:04:02.705Z,37.67
2023-04-27T11:06:45.446Z,39.15
2023-04-27T11:09:16.487Z,29.20
2023-04-27T11:11:47.683Z,30.10
2023-04-27T11:14:23.844Z,33.47
2023-04-27T11:16:53.914Z,32.83
2023-04-27T11:19:23.648Z,41.25
2023-04-27T11:21:53.935Z,144.95
2023-04-27T11:24:23.668Z,80.82
2023-04-27T11:26:56.590Z,83.57
2023-04-27T11:29:27.402Z,89.43
2023-04-27T11:31:57.733Z,93.90
2023-04-27T11:34:37.765Z,70.70
2023-04-27T11:39:43.151Z,62.05
2023-04-27T11:42:33.113Z,55.63
2023-04-27T11:45:07.357Z,49.60
2023-04-27T11:47:37.838Z,43.92
2023-04-27T11:50:10.011Z,37.40
2023-04-27T11:52:44.414Z,39.38
2023-04-27T11:55:17.390Z,45.15
2023-04-27T11:57:47.544Z,68.75
2023-04-27T12:00:18.068Z,90.30
2023-04-27T12:02:48.467Z,99.78
2023-04-27T12:05:18.761Z,106.13
2023-04-27T12:07:49.123Z,102.60
2023-04-27T12:10:18.923Z,98.07
2023-04-27T12:12:48.794Z,86.40
2023-04-27T12:15:18.723Z,43.63
2023-04-27T12:17:49.256Z,39.67
2023-04-27T12:20:19.242Z,35.45
2023-04-27T12:22:49.071Z,36.00
2023-04-27T12:25:19.715Z,36.60
2023-04-27T12:27:50.872Z,44.28
2023-04-27T12:30:21.174Z,46.10
2023-04-27T12:32:52.453Z,62.63
2023-04-27T12:35:22.551Z,75.47
2023-04-27T12:37:52.384Z,65.18
2023-04-27T12:40:24.682Z,59.60
2023-04-27T12:42:54.576Z,46.42
2023-04-27T12:45:24.270Z,29.80
2023-04-27T12:48:03.298Z,29.20
2023-04-27T12:50:35.296Z,43.42
2023-04-27T12:53:05.389Z,29.38
2023-04-27T12:55:35.001Z,28.08
2023-04-27T12:58:06.318Z,27.13
2023-04-27T13:00:36.770Z,28.65
2023-04-27T13:03:08.300Z,27.48
2023-04-27T13:05:38.628Z,26.40
2023-04-27T13:08:08.418Z,27.15
2023-04-27T13:10:39.065Z,28.05
2023-04-27T13:13:09.335Z,27.25
2023-04-27T13:15:40.111Z,27.23
2023-04-27T13:18:10.342Z,27.15
2023-04-27T13:20:40.685Z,27.52
2023-04-27T13:23:10.404Z,26.42
2023-04-27T13:25:40.864Z,24.08
2023-04-27T13:28:10.635Z,24.58
2023-04-27T13:30:40.936Z,25.23
2023-04-27T13:33:22.507Z,23.27
2023-04-27T13:35:53.841Z,23.23
2023-04-27T13:38:23.574Z,23.38
2023-04-27T13:40:53.564Z,23.27
2023-04-27T13:43:23.300Z,22.63
2023-04-27T13:45:56.464Z,22.00
2023-04-27T13:48:27.529Z,24.60
2023-04-27T13:50:57.481Z,22.83
2023-04-27T13:53:27.992Z,23.67
2023-04-27T13:55:59.266Z,23.00
2023-04-27T13:58:33.519Z,23.15
2023-04-27T14:01:03.626Z,23.73
2023-04-27T14:03:35.172Z,24.40
2023-04-27T14:06:05.578Z,23.17
2023-04-27T14:08:35.406Z,23.52
2023-04-27T14:11:05.339Z,21.35
2023-04-27T14:13:35.040Z,22.10
2023-04-27T14:16:05.153Z,20.95
2023-04-27T14:18:35.073Z,21.83
2023-04-27T14:21:06.001Z,22.15
2023-04-27T14:23:37.008Z,21.50
2023-04-27T14:26:09.130Z,23.17
2023-04-27T14:28:39.542Z,23.10
2023-04-27T14:31:09.687Z,22.23
2023-04-27T14:33:39.598Z,19.55
2023-04-27T14:36:09.464Z,20.83
2023-04-27T14:38:39.504Z,22.52
2023-04-27T14:41:10.174Z,22.90
2023-04-27T14:43:40.437Z,24.23
2023-04-27T14:46:20.213Z,23.25
2023-04-27T14:48:51.281Z,24.73
2023-04-27T14:51:24.385Z,22.73
2023-04-27T14:53:54.817Z,22.48
2023-04-27T14:56:25.629Z,24.13
2023-04-27T14:58:56.801Z,24.30
2023-04-27T15:01:26.833Z,25.13
2023-04-27T15:03:58.201Z,25.83
2023-04-27T15:06:31.870Z,28.23
2023-04-27T15:09:01.763Z,25.05
2023-04-27T15:11:31.461Z,27.73
2023-04-27T15:14:01.476Z,27.67
2023-04-27T15:16:32.387Z,27.52
2023-04-27T15:19:02.652Z,29.58
2023-04-27T15:21:33.757Z,27.08
2023-04-27T15:24:03.818Z,26.77
2023-04-27T15:26:33.506Z,27.95
2023-04-27T15:29:03.540Z,43.70
2023-04-27T15:31:33.296Z,34.90
2023-04-27T15:34:03.476Z,27.27
2023-04-27T15:36:33.851Z,28.02
2023-04-27T15:39:03.725Z,28.08
2023-04-27T15:41:33.683Z,27.25
2023-04-27T15:44:03.425Z,26.85
2023-04-27T15:46:33.552Z,27.88
2023-04-27T15:49:03.349Z,27.30
2023-04-27T15:51:33.831Z,27.27
2023-04-27T15:54:03.656Z,26.13
2023-04-27T15:56:33.928Z,28.60
2023-04-27T15:59:03.654Z,27.60
2023-04-27T16:01:33.727Z,26.85
2023-04-27T16:04:03.927Z,26.77
2023-04-27T16:06:36.218Z,27.23
2023-04-27T16:09:08.341Z,26.33
2023-04-27T16:11:40.174Z,27.67
2023-04-27T16:14:10.259Z,28.50
2023-04-27T16:16:40.724Z,28.77
2023-04-27T16:19:11.626Z,27.50
2023-04-27T16:21:41.681Z,28.17
2023-04-27T16:24:11.471Z,27.58
2023-04-27T16:26:41.335Z,26.23
2023-04-27T16:29:10.956Z,28.00
2023-04-27T16:31:41.176Z,27.73
2023-04-27T16:34:10.906Z,26.75
2023-04-27T16:36:40.724Z,25.52
2023-04-27T16:39:11.067Z,27.63
2023-04-27T16:41:40.970Z,25.90
2023-04-27T16:44:10.660Z,27.77
2023-04-27T16:46:40.509Z,26.20
2023-04-27T16:49:12.567Z,26.92
2023-04-27T16:51:42.790Z,28.15
2023-04-27T16:54:12.605Z,27.25
2023-04-27T16:56:42.484Z,26.73
2023-04-27T16:59:15.452Z,26.60
2023-04-27T17:01:45.609Z,27.10
2023-04-27T17:04:15.373Z,26.38
2023-04-27T17:06:48.369Z,27.60
2023-04-27T17:09:18.339Z,27.80
2023-04-27T17:11:48.024Z,28.60
2023-04-27T17:14:17.839Z,28.95
2023-04-27T17:16:48.306Z,29.55
2023-04-27T17:19:18.260Z,30.52
2023-04-27T17:21:48.030Z,28.38
2023-04-27T17:24:17.915Z,29.27
2023-04-27T17:26:48.412Z,30.60
2023-04-27T17:29:18.671Z,29.42
2023-04-27T17:31:48.724Z,29.92
2023-04-27T17:34:18.775Z,31.38
2023-04-27T17:36:48.498Z,30.05
2023-04-27T17:39:18.767Z,30.02
2023-04-27T17:41:48.460Z,29.05
2023-04-27T17:44:18.626Z,31.23
2023-04-27T17:46:52.861Z,28.33
2023-04-27T17:49:22.914Z,31.63
2023-04-27T17:51:52.622Z,28.45
2023-04-27T17:54:22.993Z,29.25
2023-04-27T17:56:52.671Z,30.65
2023-04-27T17:59:22.791Z,31.58
2023-04-27T18:01:52.739Z,29.48
2023-04-27T18:04:23.196Z,30.25
2023-04-27T18:06:53.015Z,28.73
2023-04-27T18:09:23.180Z,29.58
2023-04-27T18:11:52.869Z,28.90
2023-04-27T18:14:22.668Z,30.10
2023-04-27T18:16:53.109Z,29.98
2023-04-27T18:19:23.205Z,30.17
2023-04-27T18:21:52.872Z,29.90
2023-04-27T18:24:22.700Z,29.77
2023-04-27T18:26:52.564Z,29.35
2023-04-27T18:29:22.898Z,27.88
2023-04-27T18:31:52.946Z,28.52
2023-04-27T18:34:23.069Z,27.98
2023-04-27T18:36:52.708Z,30.25
2023-04-27T18:39:23.477Z,30.30
2023-04-27T18:41:53.598Z,30.15
2023-04-27T18:44:23.284Z,32.38
2023-04-27T18:46:53.422Z,29.73
2023-04-27T18:49:23.331Z,30.55
2023-04-27T18:51:53.234Z,29.40
2023-04-27T18:54:23.222Z,30.48
2023-04-27T18:56:55.092Z,30.95
2023-04-27T18:59:25.062Z,30.20
2023-04-27T19:01:55.553Z,29.77
2023-04-27T19:04:27.389Z,29.15
2023-04-27T19:06:57.381Z,29.17
2023-04-27T19:09:27.119Z,29.33
2023-04-27T19:12:02.815Z,31.95
2023-04-27T19:14:33.911Z,33.10
2023-04-27T19:17:04.994Z,33.72
2023-04-27T19:19:34.976Z,33.20
2023-04-27T19:22:05.106Z,34.20
2023-04-27T19:24:34.893Z,32.70
2023-04-27T19:27:04.529Z,31.60
2023-04-27T19:29:49.374Z,32.55
2023-04-27T19:32:19.348Z,32.42
2023-04-27T19:34:49.306Z,32.42
2023-04-27T19:37:19.386Z,32.65
2023-04-27T19:39:49.251Z,31.42
2023-04-27T19:42:19.330Z,31.02
2023-04-27T19:44:48.914Z,30.52
2023-04-27T19:47:18.762Z,28.80
2023-04-27T19:49:48.412Z,30.92
2023-04-27T19:52:18.256Z,30.70
2023-04-27T19:54:56.260Z,29.65
2023-04-27T19:57:26.337Z,31.98
2023-04-27T19:59:56.026Z,30.58
2023-04-27T20:02:25.949Z,31.05
2023-04-27T20:04:56.108Z,31.00
2023-04-27T20:07:26.445Z,30.88
2023-04-27T20:09:56.009Z,31.48
2023-04-27T20:12:44.020Z,30.38
2023-04-27T20:15:16.898Z,31.42
2023-04-27T20:17:47.835Z,31.55
2023-04-27T20:20:18.176Z,31.27
2023-04-27T20:22:47.951Z,31.13
2023-04-27T20:25:17.748Z,32.05
2023-04-27T20:27:47.867Z,33.85
2023-04-27T20:30:17.777Z,32.80
2023-04-27T20:32:47.918Z,32.03
2023-04-27T20:35:17.788Z,31.70
2023-04-27T20:37:48.606Z,33.90
2023-04-27T20:40:19.642Z,34.05
2023-04-27T20:42:50.903Z,33.83
2023-04-27T20:45:21.153Z,34.15
2023-04-27T20:47:50.921Z,32.72
2023-04-27T20:50:20.858Z,33.15
2023-04-27T20:52:50.544Z,31.27
2023-04-27T20:55:20.526Z,32.45
2023-04-27T20:57:50.254Z,33.75
2023-04-27T21:00:20.475Z,34.63
2023-04-27T21:02:50.381Z,34.55
2023-04-27T21:05:20.302Z,32.40
2023-04-27T21:07:49.948Z,33.15
2023-04-27T21:10:20.012Z,33.22
2023-04-27T21:12:49.641Z,33.20
2023-04-27T21:15:19.629Z,34.83
2023-04-27T21:17:49.950Z,33.88
2023-04-27T21:20:20.310Z,34.25
2023-04-27T21:22:49.932Z,34.38
2023-04-27T21:25:22.220Z,35.05
2023-04-27T21:27:53.602Z,34.67
2023-04-27T21:30:23.425Z,35.30
2023-04-27T21:32:53.394Z,36.42
2023-04-27T21:35:23.567Z,35.50
2023-04-27T21:37:53.705Z,34.92
2023-04-27T21:40:23.768Z,35.60
2023-04-27T21:42:57.088Z,35.85
2023-04-27T21:45:27.128Z,34.13
2023-04-27T21:47:57.004Z,33.70
2023-04-27T21:50:27.232Z,33.40
2023-04-27T21:52:57.069Z,34.83
2023-04-27T21:55:27.353Z,34.78
2023-04-27T21:57:56.972Z,35.92
2023-04-27T22:00:27.227Z,35.22
2023-04-27T22:02:57.056Z,36.22
2023-04-27T22:05:30.616Z,35.10
2023-04-27T22:08:00.537Z,33.85
2023-04-27T22:10:30.151Z,35.05
2023-04-27T22:13:05.255Z,36.53
2023-04-27T22:15:44.846Z,37.22
2023-04-27T22:18:15.942Z,37.63
2023-04-27T22:20:46.080Z,38.28
2023-04-27T22:23:15.775Z,37.88
2023-04-27T22:25:45.778Z,37.28
2023-04-27T22:28:15.464Z,36.67
2023-04-27T22:30:45.574Z,38.95
2023-04-27T22:33:15.214Z,37.60
2023-04-27T22:35:45.082Z,40.45
2023-04-27T22:38:14.812Z,40.03
2023-04-27T22:40:44.852Z,41.35
2023-04-27T22:43:14.476Z,38.78
2023-04-27T22:45:45.513Z,39.55
2023-04-27T22:48:15.201Z,39.83
2023-04-27T22:50:45.037Z,39.60
2023-04-27T22:53:14.713Z,40.70
2023-04-27T22:55:44.549Z,40.58
2023-04-27T22:58:14.240Z,39.92
2023-04-27T23:00:44.261Z,41.53
2023-04-27T23:03:14.299Z,40.88
2023-04-27T23:05:44.771Z,40.25
2023-04-27T23:08:14.854Z,40.90
2023-04-27T23:10:44.817Z,42.92
2023-04-27T23:13:14.628Z,42.40
2023-04-27T23:15:44.448Z,43.13
2023-04-27T23:18:14.199Z,43.60
2023-04-27T23:20:44.176Z,41.72
2023-04-27T23:23:13.911Z,40.20
2023-04-27T23:25:43.790Z,41.05
2023-04-27T23:28:13.501Z,40.83
2023-04-27T23:30:43.450Z,42.10
2023-04-27T23:33:13.227Z,40.08
2023-04-27T23:35:43.158Z,47.35
2023-04-27T23:38:12.933Z,41.42
2023-04-27T23:40:42.824Z,41.55
2023-04-27T23:43:13.288Z,42.25
2023-04-27T23:45:50.238Z,41.92
2023-04-27T23:48:20.846Z,41.17
2023-04-27T23:50:50.548Z,41.17
2023-04-27T23:53:20.475Z,41.75
2023-04-27T23:55:50.180Z,42.33
2023-04-27T23:58:20.278Z,44.28
